Time;durP1;ratioP1;P1;durP2;ratioP2;P2;SDS_P1;SDS_P2;PMS_P1;PMS_P2;Temp;Humidity;BMP_temperature;BMP_pressure;BME280_temperature;BME280_humidity;BME280_pressure;Samples;Min_cycle;Max_cycle;Signal;HPM_P1;HPM_P2
2022/07/29 00:01:22;;;;;;;8.55;4.07;;;21.00;60.10;;;;;;5074545;28;20606;-77
2022/07/29 00:03:49;;;;;;;7.75;3.90;;;21.00;60.30;;;;;;5074438;28;20568;-77
2022/07/29 00:06:16;;;;;;;4.22;3.67;;;21.00;60.70;;;;;;5074260;28;20255;-77
2022/07/29 00:08:42;;;;;;;8.82;3.88;;;21.10;61.00;;;;;;5074494;28;20197;-76
2022/07/29 00:11:09;;;;;;;4.85;3.50;;;21.00;61.10;;;;;;5074256;28;20607;-77
2022/07/29 00:13:37;;;;;;;5.25;3.85;;;21.00;61.40;;;;;;5074221;28;20656;-77
2022/07/29 00:16:05;;;;;;;6.72;4.00;;;20.90;62.90;;;;;;5074162;28;20868;-77
2022/07/29 00:18:31;;;;;;;5.80;4.10;;;20.90;63.20;;;;;;5074048;28;20266;-77
2022/07/29 00:20:58;;;;;;;6.05;3.85;;;20.90;64.20;;;;;;5073879;28;20204;-77
2022/07/29 00:23:25;;;;;;;5.82;3.92;;;20.90;64.80;;;;;;5074083;28;20204;-77
2022/07/29 00:25:51;;;;;;;5.32;4.53;;;20.90;65.20;;;;;;5074107;28;20233;-77
2022/07/29 00:28:18;;;;;;;5.45;3.70;;;20.90;65.50;;;;;;5074019;28;20208;-78
2022/07/29 00:30:46;;;;;;;5.25;4.00;;;20.80;66.10;;;;;;5073946;28;20201;-78
2022/07/29 00:33:13;;;;;;;6.03;3.97;;;20.80;66.30;;;;;;5073835;28;20201;-77
2022/07/29 00:35:44;;;;;;;5.40;3.95;;;20.80;67.80;;;;;;5073954;28;20196;-77
2022/07/29 00:38:12;;;;;;;4.13;3.47;;;20.80;68.00;;;;;;5073784;28;20220;-78
2022/07/29 00:40:39;;;;;;;5.13;4.18;;;20.80;69.20;;;;;;5073538;28;20225;-77
2022/07/29 00:43:05;;;;;;;6.20;3.85;;;20.80;69.20;;;;;;5073637;28;20197;-78
2022/07/29 00:45:32;;;;;;;5.47;3.95;;;20.70;69.70;;;;;;5073584;28;20197;-78
2022/07/29 00:48:00;;;;;;;4.32;3.85;;;20.70;71.10;;;;;;5073708;28;20205;-78
2022/07/29 00:50:27;;;;;;;5.47;4.10;;;20.70;71.90;;;;;;5073339;28;20201;-78
2022/07/29 00:52:54;;;;;;;7.43;4.30;;;20.60;71.50;;;;;;5073694;28;20342;-78
2022/07/29 00:55:22;;;;;;;5.95;3.90;;;20.40;72.80;;;;;;5073412;28;20197;-76
2022/07/29 00:57:49;;;;;;;6.85;3.95;;;20.30;74.10;;;;;;5073314;28;20656;-76
2022/07/29 01:00:18;;;;;;;4.63;3.92;;;20.30;76.40;;;;;;5073321;28;20200;-77
2022/07/29 01:02:45;;;;;;;5.90;3.83;;;20.40;78.20;;;;;;5073481;28;20201;-77
2022/07/29 01:05:13;;;;;;;4.78;3.97;;;20.40;78.90;;;;;;5073393;28;20192;-77
2022/07/29 01:07:40;;;;;;;8.50;4.35;;;20.40;80.50;;;;;;5073275;28;20232;-77
2022/07/29 01:10:10;;;;;;;7.35;5.35;;;20.40;82.00;;;;;;5073981;28;20254;-77
2022/07/29 01:12:38;;;;;;;13.13;6.10;;;20.30;82.20;;;;;;5073734;28;20201;-76
2022/07/29 01:15:07;;;;;;;10.85;6.50;;;20.30;83.20;;;;;;5073394;28;20611;-76
2022/07/29 01:17:41;;;;;;;6.82;5.18;;;20.30;86.00;;;;;;5073287;28;20204;-77
2022/07/29 01:20:13;;;;;;;6.88;4.10;;;20.20;86.50;;;;;;5072921;28;20621;-77
2022/07/29 01:23:09;;;;;;;6.28;4.10;;;20.10;87.50;;;;;;5072955;28;20201;-77
2022/07/29 01:26:04;;;;;;;6.28;5.45;;;20.10;89.60;;;;;;5073157;28;20200;-78
2022/07/29 01:29:04;;;;;;;4.90;4.10;;;20.00;90.20;;;;;;5064010;28;20611;-78
2022/07/29 01:31:36;;;;;;;5.43;4.18;;;19.90;92.00;;;;;;5064166;28;20227;-78
2022/07/29 01:34:06;;;;;;;7.95;4.25;;;19.80;92.70;;;;;;5073270;28;20197;-77
2022/07/29 01:36:37;;;;;;;5.10;4.47;;;19.70;93.50;;;;;;5073001;28;20537;-77
2022/07/29 01:39:08;;;;;;;7.25;4.13;;;19.60;95.30;;;;;;5072904;28;20225;-78
2022/07/29 01:41:39;;;;;;;9.20;4.57;;;19.60;96.30;;;;;;5072922;28;20203;-78
2022/07/29 01:44:14;;;;;;;8.43;4.30;;;19.50;97.00;;;;;;5072695;28;20209;-77
2022/07/29 01:46:47;;;;;;;5.07;4.00;;;19.50;98.70;;;;;;5073021;28;20197;-77
2022/07/29 01:49:18;;;;;;;4.25;3.85;;;19.40;99.90;;;;;;5072956;28;20193;-78
2022/07/29 01:51:49;;;;;;;6.13;4.40;;;19.30;99.90;;;;;;5072972;28;20196;-78
2022/07/29 01:54:21;;;;;;;5.85;4.00;;;19.10;99.90;;;;;;5072728;28;20672;-77
2022/07/29 01:56:51;;;;;;;7.38;4.65;;;19.00;99.90;;;;;;5072852;28;20270;-78
2022/07/29 01:59:21;;;;;;;4.38;4.03;;;19.00;99.90;;;;;;5072735;28;20225;-77
2022/07/29 02:01:49;;;;;;;5.70;4.30;;;18.90;99.90;;;;;;5073244;28;20254;-78
2022/07/29 02:04:18;;;;;;;7.13;4.47;;;18.80;99.90;;;;;;5075145;28;20227;-78
2022/07/29 02:06:46;;;;;;;4.88;3.78;;;18.70;99.90;;;;;;5074468;28;20197;-78
2022/07/29 02:09:15;;;;;;;5.80;4.40;;;18.60;99.90;;;;;;5073673;28;20193;-78
2022/07/29 02:11:45;;;;;;;5.78;4.38;;;18.60;99.90;;;;;;5073400;28;20197;-78
2022/07/29 02:14:15;;;;;;;6.30;4.10;;;18.50;99.90;;;;;;5072858;28;20197;-76
2022/07/29 02:16:44;;;;;;;6.95;4.60;;;18.30;99.90;;;;;;5072758;28;20189;-76
2022/07/29 02:19:13;;;;;;;6.55;4.38;;;18.20;99.90;;;;;;5072378;28;20217;-75
2022/07/29 02:21:42;;;;;;;6.90;4.43;;;18.10;99.90;;;;;;5072525;28;20196;-77
2022/07/29 02:24:11;;;;;;;4.65;4.20;;;18.00;99.90;;;;;;5073517;28;20254;-77
2022/07/29 02:26:42;;;;;;;5.47;4.57;;;18.00;99.90;;;;;;5073621;28;20201;-79
2022/07/29 02:29:10;;;;;;;7.43;4.57;;;17.80;99.90;;;;;;5079347;28;20250;-79
2022/07/29 02:31:38;;;;;;;8.32;5.50;;;17.70;99.90;;;;;;5080487;28;20201;-79
2022/07/29 02:34:09;;;;;;;6.50;4.63;;;17.60;99.90;;;;;;5094095;28;20196;-78
2022/07/29 02:36:38;;;;;;;6.30;4.40;;;17.50;99.90;;;;;;5084143;28;20197;-79
2022/07/29 02:39:05;;;;;;;7.75;4.78;;;17.40;99.90;;;;;;5072696;28;20631;-79
2022/07/29 02:41:40;;;;;;;5.57;4.38;;;17.30;99.90;;;;;;5072582;28;20234;-79
2022/07/29 02:44:11;;;;;;;6.53;4.65;;;17.20;99.90;;;;;;5074947;28;20271;-79
2022/07/29 02:46:42;;;;;;;5.72;4.85;;;17.20;99.90;;;;;;5075997;28;20197;-79
2022/07/29 02:49:19;;;;;;;4.78;4.28;;;17.10;99.90;;;;;;5076165;28;20274;-79
2022/07/29 02:51:50;;;;;;;6.28;4.88;;;17.20;99.90;;;;;;5076053;28;20211;-80
2022/07/29 02:54:24;;;;;;;6.07;4.60;;;17.10;99.90;;;;;;5076081;28;20262;-80
2022/07/29 02:56:55;;;;;;;9.35;4.70;;;17.00;99.90;;;;;;5076015;28;20258;-80
2022/07/29 02:59:26;;;;;;;7.00;4.82;;;17.00;99.90;;;;;;5075992;28;20225;-80
2022/07/29 03:01:54;;;;;;;5.85;4.72;;;16.90;99.90;;;;;;5075968;28;20219;-80
2022/07/29 03:04:25;;;;;;;6.53;4.80;;;16.80;99.90;;;;;;5075712;28;20197;-80
2022/07/29 03:06:53;;;;;;;4.57;4.18;;;16.80;99.90;;;;;;5075792;28;20250;-80
2022/07/29 03:09:21;;;;;;;8.07;4.75;;;16.90;99.90;;;;;;5075640;28;20255;-79
2022/07/29 03:11:48;;;;;;;6.57;4.82;;;16.80;99.90;;;;;;5075721;28;20200;-79
2022/07/29 03:14:16;;;;;;;7.25;4.68;;;16.70;99.90;;;;;;5075640;28;20649;-79
2022/07/29 03:16:43;;;;;;;5.03;4.50;;;16.70;99.90;;;;;;5075799;28;20201;-79
2022/07/29 03:19:09;;;;;;;7.72;5.00;;;16.60;99.90;;;;;;5075406;28;20213;-79
2022/07/29 03:21:37;;;;;;;5.80;4.70;;;16.60;99.90;;;;;;5075383;28;20209;-79
2022/07/29 03:24:04;;;;;;;9.38;5.00;;;16.60;99.90;;;;;;5075160;28;20262;-79
2022/07/29 03:26:31;;;;;;;8.20;5.80;;;16.50;99.90;;;;;;5075334;28;20238;-80
2022/07/29 03:28:58;;;;;;;7.50;5.20;;;16.70;99.90;;;;;;5075343;28;20212;-78
2022/07/29 03:31:24;;;;;;;5.63;4.97;;;16.80;99.90;;;;;;5075230;28;20197;-79
2022/07/29 03:33:51;;;;;;;7.93;5.45;;;16.70;99.90;;;;;;5075136;28;20196;-79
2022/07/29 03:36:18;;;;;;;6.15;5.25;;;16.70;99.90;;;;;;5075047;28;20201;-77
2022/07/29 03:38:48;;;;;;;5.93;4.80;;;16.70;99.90;;;;;;5074986;28;20592;-78
2022/07/29 03:41:17;;;;;;;6.05;4.85;;;16.60;99.90;;;;;;5074678;28;20782;-78
2022/07/29 03:43:44;;;;;;;8.98;5.03;;;16.60;99.90;;;;;;5075057;28;20270;-78
2022/07/29 03:46:14;;;;;;;7.20;5.40;;;16.70;99.90;;;;;;5074950;28;20201;-79
2022/07/29 03:48:46;;;;;;;6.28;5.18;;;16.50;99.90;;;;;;5074855;28;20200;-79
2022/07/29 03:51:13;;;;;;;6.40;5.00;;;16.50;99.90;;;;;;5074728;28;20197;-78
2022/07/29 03:53:40;;;;;;;6.75;5.40;;;16.40;99.90;;;;;;5074855;28;20305;-78
2022/07/29 03:56:10;;;;;;;5.80;5.05;;;16.40;99.90;;;;;;5074174;28;20270;-78
2022/07/29 03:58:38;;;;;;;6.03;5.43;;;16.20;99.90;;;;;;5074510;28;20556;-78
2022/07/29 04:01:05;;;;;;;6.90;5.28;;;16.00;99.90;;;;;;5074599;28;20278;-78
2022/07/29 04:03:32;;;;;;;9.63;5.55;;;16.00;99.90;;;;;;5074855;28;20645;-77
2022/07/29 04:06:00;;;;;;;6.30;5.50;;;15.90;99.90;;;;;;5075299;28;20197;-79
2022/07/29 04:08:27;;;;;;;8.85;5.53;;;15.80;99.90;;;;;;5074575;28;20200;-79
2022/07/29 04:10:53;;;;;;;8.97;5.87;;;15.90;99.90;;;;;;5074321;28;20197;-79
2022/07/29 04:13:21;;;;;;;7.70;5.55;;;15.90;99.90;;;;;;5074349;28;20561;-79
2022/07/29 04:15:48;;;;;;;7.20;5.90;;;15.80;99.90;;;;;;5074336;28;20197;-80
2022/07/29 04:18:15;;;;;;;7.50;5.33;;;15.80;99.90;;;;;;5074190;28;20656;-79
2022/07/29 04:20:41;;;;;;;7.53;5.57;;;15.90;99.90;;;;;;5074237;28;20228;-79
2022/07/29 04:23:08;;;;;;;7.25;5.63;;;16.00;99.90;;;;;;5074309;28;20242;-79
2022/07/29 04:25:38;;;;;;;6.63;5.65;;;16.10;99.90;;;;;;5074103;28;20251;-76
2022/07/29 04:28:05;;;;;;;7.20;5.55;;;16.20;99.90;;;;;;5074035;28;20195;-75
2022/07/29 04:30:35;;;;;;;7.38;5.50;;;16.30;99.90;;;;;;5074138;28;20201;-75
2022/07/29 04:33:02;;;;;;;12.45;6.03;;;16.40;99.90;;;;;;5073847;28;20326;-75
2022/07/29 04:35:29;;;;;;;9.93;5.22;;;16.50;99.90;;;;;;5073920;28;20223;-75
2022/07/29 04:37:56;;;;;;;9.33;6.67;;;16.60;99.90;;;;;;5073655;28;20196;-75
2022/07/29 04:40:23;;;;;;;12.65;7.28;;;16.70;99.90;;;;;;5073514;28;20237;-75
2022/07/29 04:42:49;;;;;;;9.48;6.85;;;16.80;99.90;;;;;;5073756;28;20200;-75
2022/07/29 04:45:16;;;;;;;13.18;6.90;;;16.80;99.90;;;;;;5073624;28;20197;-75
2022/07/29 04:47:44;;;;;;;13.75;6.60;;;16.90;99.90;;;;;;5073919;28;20200;-75
2022/07/29 04:50:11;;;;;;;8.52;6.53;;;17.00;99.90;;;;;;5073794;28;20197;-75
2022/07/29 04:52:38;;;;;;;11.10;6.05;;;17.10;99.90;;;;;;5073499;28;20255;-75
2022/07/29 04:55:06;;;;;;;10.88;6.60;;;17.10;99.90;;;;;;5073366;28;20644;-74
2022/07/29 04:57:33;;;;;;;8.55;7.15;;;17.30;99.90;;;;;;5073354;28;20205;-73
2022/07/29 05:00:00;;;;;;;8.82;6.97;;;17.40;99.90;;;;;;5073350;28;20212;-75
2022/07/29 05:02:27;;;;;;;11.38;7.03;;;17.40;99.90;;;;;;5073509;28;20200;-76
2022/07/29 05:04:55;;;;;;;8.80;6.85;;;17.60;99.90;;;;;;5073685;28;20208;-75
2022/07/29 05:07:22;;;;;;;11.38;7.38;;;17.60;99.90;;;;;;5072673;28;20201;-75
2022/07/29 05:09:48;;;;;;;10.82;7.90;;;17.60;99.90;;;;;;5073345;28;20201;-75
2022/07/29 05:12:15;;;;;;;9.63;7.68;;;17.80;99.90;;;;;;5083167;28;20633;-80
2022/07/29 05:14:42;;;;;;;10.30;6.40;;;17.80;99.90;;;;;;5089984;28;20201;-75
2022/07/29 05:17:09;;;;;;;9.60;7.18;;;18.00;99.90;;;;;;5073567;28;20193;-76
2022/07/29 05:19:35;;;;;;;11.50;7.22;;;18.10;99.90;;;;;;5073699;28;20631;-76
2022/07/29 05:22:03;;;;;;;11.05;7.88;;;18.10;99.90;;;;;;5074251;28;20615;-76
2022/07/29 05:24:30;;;;;;;14.38;7.97;;;18.20;99.90;;;;;;5073116;28;20304;-77
2022/07/29 05:26:57;;;;;;;19.95;10.38;;;18.40;99.90;;;;;;5072879;28;20223;-75
2022/07/29 05:29:23;;;;;;;14.98;9.57;;;18.60;99.90;;;;;;5073082;28;20201;-75
2022/07/29 05:31:51;;;;;;;10.65;6.97;;;18.80;99.90;;;;;;5072992;28;20243;-75
2022/07/29 05:34:18;;;;;;;8.32;6.60;;;18.90;99.90;;;;;;5072836;28;20719;-75
2022/07/29 05:36:45;;;;;;;7.85;6.15;;;19.00;99.90;;;;;;5073017;28;20201;-75
2022/07/29 05:39:13;;;;;;;7.07;6.47;;;19.20;99.90;;;;;;5072697;28;20196;-75
2022/07/29 05:41:40;;;;;;;12.68;6.20;;;19.30;99.90;;;;;;5072622;28;20239;-75
2022/07/29 05:44:06;;;;;;;8.10;6.10;;;19.50;99.90;;;;;;5072712;28;20201;-75
2022/07/29 05:46:33;;;;;;;8.07;6.43;;;19.60;99.90;;;;;;5072979;28;20231;-76
2022/07/29 05:49:00;;;;;;;7.20;6.50;;;19.60;99.90;;;;;;5072859;28;20197;-75
2022/07/29 05:51:26;;;;;;;6.80;6.05;;;19.80;99.90;;;;;;5073470;28;20201;-75
2022/07/29 05:53:53;;;;;;;11.25;6.30;;;19.90;99.90;;;;;;5072681;28;20204;-75
2022/07/29 05:56:21;;;;;;;7.70;5.82;;;20.10;99.90;;;;;;5072919;28;20205;-75
2022/07/29 05:58:48;;;;;;;7.78;6.13;;;20.20;99.90;;;;;;5072815;28;20197;-76
2022/07/29 06:01:15;;;;;;;6.72;5.90;;;20.40;99.90;;;;;;5072668;28;20704;-75
2022/07/29 06:03:42;;;;;;;9.73;6.07;;;20.60;99.90;;;;;;5073268;28;20717;-75
2022/07/29 06:06:09;;;;;;;8.90;5.68;;;20.70;99.90;;;;;;5072778;28;20207;-75
2022/07/29 06:08:36;;;;;;;9.65;5.97;;;20.90;99.90;;;;;;5072471;28;20709;-74
2022/07/29 06:11:04;;;;;;;8.30;6.40;;;20.80;99.90;;;;;;5072624;28;20192;-73
2022/07/29 06:13:32;;;;;;;7.32;5.75;;;20.90;99.90;;;;;;5072780;28;20205;-74
2022/07/29 06:15:59;;;;;;;9.98;5.53;;;21.00;99.90;;;;;;5072542;28;20200;-74
2022/07/29 06:18:25;;;;;;;9.82;5.80;;;21.20;99.90;;;;;;5074653;28;20200;-74
2022/07/29 06:20:52;;;;;;;7.85;5.25;;;21.20;99.90;;;;;;5076437;28;20618;-74
2022/07/29 06:23:19;;;;;;;7.90;5.72;;;21.40;99.90;;;;;;5076443;28;20599;-74
2022/07/29 06:25:46;;;;;;;8.50;5.07;;;21.50;99.90;;;;;;5076562;28;20223;-74
2022/07/29 06:28:13;;;;;;;8.45;5.72;;;21.50;99.90;;;;;;5076635;28;20196;-74
2022/07/29 06:30:41;;;;;;;10.90;5.55;;;21.60;99.90;;;;;;5076229;28;20659;-73
2022/07/29 06:33:08;;;;;;;6.65;5.03;;;21.80;99.90;;;;;;5076372;28;20250;-80
2022/07/29 06:35:35;;;;;;;10.60;5.20;;;21.80;99.90;;;;;;5075908;28;20193;-74
2022/07/29 06:38:02;;;;;;;14.10;6.20;;;22.00;99.90;;;;;;5074817;28;20616;-74
2022/07/29 06:43:31;;;;;;;11.35;5.70;;;22.20;99.90;;;;;;4994602;28;20277;-72
2022/07/29 06:46:00;;;;;;;7.90;5.10;;;22.30;99.90;;;;;;4995284;28;20661;-74
2022/07/29 06:48:26;;;;;;;9.57;5.70;;;22.30;99.90;;;;;;5032559;28;20197;-74
2022/07/29 06:50:53;;;;;;;8.00;5.80;;;22.40;99.90;;;;;;5075793;28;20197;-74
2022/07/29 06:53:20;;;;;;;7.75;5.10;;;22.50;99.90;;;;;;5075878;28;20224;-75
2022/07/29 06:55:46;;;;;;;7.47;5.32;;;22.70;99.90;;;;;;5075756;28;20236;-74
2022/07/29 06:58:15;;;;;;;6.88;5.25;;;22.70;99.90;;;;;;5075577;28;20246;-73
2022/07/29 07:00:42;;;;;;;6.88;4.72;;;22.90;99.90;;;;;;5075413;28;20220;-73
2022/07/29 07:03:10;;;;;;;8.23;4.95;;;23.10;99.90;;;;;;5075929;28;20243;-73
2022/07/29 07:05:36;;;;;;;7.90;4.55;;;23.20;99.90;;;;;;5075429;28;20212;-73
2022/07/29 07:08:03;;;;;;;7.25;4.30;;;23.30;99.90;;;;;;5049421;28;20734;-74
2022/07/29 07:10:30;;;;;;;5.85;3.55;;;23.40;99.90;;;;;;5072945;28;20208;-74
2022/07/29 07:12:57;;;;;;;3.72;3.42;;;23.30;99.90;;;;;;5090707;28;20249;-74
2022/07/29 07:15:23;;;;;;;7.57;4.10;;;23.30;99.90;;;;;;5111773;28;20253;-74
2022/07/29 07:17:50;;;;;;;5.43;3.90;;;23.40;99.90;;;;;;5099708;28;20197;-80
2022/07/29 07:20:19;;;;;;;4.53;3.60;;;23.30;99.90;;;;;;5096556;28;20216;-76
2022/07/29 07:22:45;;;;;;;4.10;3.70;;;23.50;99.90;;;;;;5113787;28;20196;-75
2022/07/29 07:25:14;;;;;;;4.50;3.97;;;23.60;99.90;;;;;;5110061;28;20196;-80
2022/07/29 07:27:41;;;;;;;5.32;3.75;;;23.90;99.90;;;;;;5097260;28;20272;-74
2022/07/29 07:30:08;;;;;;;3.97;3.58;;;23.90;99.90;;;;;;5114120;28;20248;-76
2022/07/29 07:32:35;;;;;;;5.72;4.00;;;23.80;99.90;;;;;;5093990;28;20656;-76
2022/07/29 07:35:03;;;;;;;4.40;3.88;;;23.90;99.90;;;;;;5102502;28;20202;-76
2022/07/29 07:37:31;;;;;;;6.50;3.90;;;23.90;99.90;;;;;;5103924;28;20253;-79
2022/07/29 07:39:58;;;;;;;4.30;3.55;;;24.20;99.90;;;;;;5091192;28;20228;-76
2022/07/29 07:42:25;;;;;;;5.43;3.67;;;24.30;99.90;;;;;;5097491;28;20287;-75
2022/07/29 07:44:52;;;;;;;4.95;3.55;;;24.30;99.90;;;;;;5088265;28;20226;-75
2022/07/29 07:47:20;;;;;;;4.85;3.58;;;24.50;99.90;;;;;;5093793;28;20663;-75
2022/07/29 07:49:47;;;;;;;3.45;2.92;;;24.80;99.90;;;;;;5092229;28;20258;-75
2022/07/29 07:52:14;;;;;;;4.22;2.92;;;25.10;99.90;;;;;;5082452;28;20683;-76
2022/07/29 07:54:42;;;;;;;3.97;2.88;;;24.80;99.90;;;;;;5080498;28;21002;-75
2022/07/29 07:57:09;;;;;;;3.35;3.05;;;25.00;99.70;;;;;;5080393;28;20250;-75
2022/07/29 07:59:36;;;;;;;3.90;2.80;;;25.20;98.50;;;;;;5093599;28;20192;-75
2022/07/29 08:02:02;;;;;;;8.32;3.45;;;25.40;97.20;;;;;;5093118;28;20220;-75
2022/07/29 08:04:29;;;;;;;6.32;3.42;;;25.20;96.40;;;;;;5093084;28;20264;-75
2022/07/29 08:06:57;;;;;;;4.13;2.78;;;25.30;95.80;;;;;;5087557;28;20242;-76
2022/07/29 08:09:24;;;;;;;5.10;3.42;;;25.50;94.80;;;;;;5091999;28;20203;-75
2022/07/29 08:11:53;;;;;;;5.35;3.47;;;25.50;94.60;;;;;;5090508;28;20724;-75
2022/07/29 08:14:20;;;;;;;3.42;3.05;;;25.40;94.90;;;;;;5091828;28;20196;-75
2022/07/29 08:16:46;;;;;;;3.55;3.22;;;25.70;95.10;;;;;;5100496;28;20618;-74
2022/07/29 08:19:13;;;;;;;3.17;2.88;;;26.20;92.90;;;;;;5100229;28;20230;-74
2022/07/29 08:21:40;;;;;;;3.38;3.00;;;26.80;92.40;;;;;;5104360;28;20284;-75
2022/07/29 08:26:53;;;;;;;3.80;2.80;;;27.50;85.60;;;;;;5098125;28;20241;-75
2022/07/29 08:29:19;;;;;;;2.92;2.60;;;27.20;81.40;;;;;;5112780;28;20200;-75
2022/07/29 08:31:46;;;;;;;3.92;2.83;;;27.10;81.90;;;;;;5104948;28;20200;-74
2022/07/29 08:34:13;;;;;;;3.58;3.00;;;27.20;80.80;;;;;;5099896;28;20280;-74
2022/07/29 08:36:39;;;;;;;3.17;2.83;;;27.40;81.70;;;;;;5089990;28;20212;-74
2022/07/29 08:39:06;;;;;;;7.03;3.08;;;27.90;80.50;;;;;;5110085;28;20229;-74
2022/07/29 08:41:33;;;;;;;2.80;2.60;;;28.40;77.50;;;;;;5096788;28;20232;-75
2022/07/29 08:44:01;;;;;;;2.88;2.67;;;28.50;72.00;;;;;;5103403;28;20676;-74
2022/07/29 08:46:27;;;;;;;3.08;2.88;;;28.60;72.30;;;;;;5093426;28;20196;-74
2022/07/29 08:48:55;;;;;;;5.55;2.70;;;28.70;71.40;;;;;;5108452;28;20204;-75
2022/07/29 08:51:22;;;;;;;3.03;2.67;;;28.80;70.40;;;;;;5092353;28;20196;-75
2022/07/29 08:53:51;;;;;;;5.90;2.60;;;29.00;67.10;;;;;;5091475;28;20204;-75
2022/07/29 08:56:19;;;;;;;4.05;2.80;;;29.20;65.00;;;;;;5094950;28;20204;-75
2022/07/29 08:58:48;;;;;;;4.07;2.50;;;29.30;63.10;;;;;;5091933;28;20529;-75
2022/07/29 09:01:18;;;;;;;3.92;2.50;;;29.70;63.50;;;;;;5092074;28;20221;-75
2022/07/29 09:03:46;;;;;;;3.75;2.60;;;28.90;59.20;;;;;;5086675;28;20344;-75
2022/07/29 09:06:15;;;;;;;3.90;2.60;;;28.90;57.50;;;;;;5091558;28;20709;-75
2022/07/29 09:08:42;;;;;;;5.03;2.60;;;28.90;56.40;;;;;;5094427;28;20196;-74
2022/07/29 09:11:09;;;;;;;2.50;2.30;;;29.00;56.30;;;;;;5087630;28;20695;-74
2022/07/29 09:13:36;;;;;;;2.63;2.42;;;29.10;55.60;;;;;;5093527;28;20195;-73
2022/07/29 09:16:03;;;;;;;3.47;2.90;;;29.10;55.70;;;;;;5091762;28;20256;-74
2022/07/29 09:18:38;;;;;;;4.03;2.38;;;29.10;55.50;;;;;;5085981;28;20221;-74
2022/07/29 09:24:06;;;;;;;3.40;3.10;;;29.80;54.40;;;;;;5095534;28;20227;-74
2022/07/29 09:26:35;;;;;;;3.63;2.70;;;30.40;53.40;;;;;;5105832;28;20196;-75
2022/07/29 09:29:09;;;;;;;3.72;2.95;;;30.40;51.50;;;;;;5096174;28;20242;-76
2022/07/29 09:31:36;;;;;;;3.17;2.88;;;30.30;49.60;;;;;;5098994;28;20734;-76
2022/07/29 09:34:05;;;;;;;4.13;2.70;;;30.10;48.70;;;;;;5096265;28;20235;-75
2022/07/29 09:36:39;;;;;;;3.00;2.65;;;28.60;49.30;;;;;;5091035;28;20246;-74
2022/07/29 09:39:05;;;;;;;6.70;2.80;;;28.20;51.60;;;;;;5095581;28;20197;-74
2022/07/29 09:41:45;;;;;;;3.75;2.95;;;28.60;51.70;;;;;;5100779;28;20231;-74
2022/07/29 09:44:12;;;;;;;3.03;2.72;;;29.00;50.30;;;;;;5100968;28;20554;-74
2022/07/29 09:46:39;;;;;;;3.22;2.15;;;29.00;49.30;;;;;;5092632;28;20200;-74
2022/07/29 09:49:11;;;;;;;3.55;2.13;;;29.00;48.20;;;;;;5094467;28;20191;-74
2022/07/29 09:51:38;;;;;;;4.18;2.53;;;29.30;47.20;;;;;;5095730;28;20244;-74
2022/07/29 09:54:22;;;;;;;2.72;2.53;;;29.20;46.20;;;;;;5095900;28;20250;-75
2022/07/29 09:56:49;;;;;;;2.47;2.28;;;29.60;47.30;;;;;;5094480;28;20312;-73
2022/07/29 09:59:16;;;;;;;2.40;2.20;;;30.00;47.20;;;;;;5097236;28;20253;-73
2022/07/29 10:01:43;;;;;;;3.58;1.90;;;30.30;43.60;;;;;;5084110;28;20584;-74
2022/07/29 10:04:11;;;;;;;2.53;1.98;;;29.80;42.40;;;;;;5093119;28;20245;-75
2022/07/29 10:06:57;;;;;;;2.50;1.90;;;29.90;43.30;;;;;;5097469;28;20603;-76
2022/07/29 10:09:24;;;;;;;3.35;2.10;;;30.00;41.60;;;;;;5097830;28;20278;-75
2022/07/29 10:12:04;;;;;;;3.42;2.00;;;30.20;42.90;;;;;;5088635;28;20203;-75
2022/07/29 10:14:32;;;;;;;2.35;2.15;;;30.80;42.00;;;;;;5096909;28;20200;-73
2022/07/29 10:17:00;;;;;;;2.17;1.88;;;31.20;41.30;;;;;;5095416;28;20827;-74
2022/07/29 10:19:29;;;;;;;2.30;2.10;;;31.60;40.30;;;;;;5093197;28;20189;-75
2022/07/29 10:21:56;;;;;;;2.28;2.08;;;32.40;38.90;;;;;;5098400;28;20258;-74
2022/07/29 10:24:24;;;;;;;1.92;1.73;;;33.10;36.30;;;;;;5105121;28;20199;-75
2022/07/29 10:26:51;;;;;;;3.08;2.03;;;33.50;34.40;;;;;;5110979;28;20228;-75
2022/07/29 10:29:17;;;;;;;3.33;2.10;;;33.80;34.90;;;;;;5100819;28;20201;-75
2022/07/29 10:31:54;;;;;;;3.13;2.20;;;34.40;34.40;;;;;;5088943;28;20204;-76
2022/07/29 10:34:30;;;;;;;3.58;2.20;;;34.80;33.30;;;;;;5107756;28;20420;-75
2022/07/29 10:37:08;;;;;;;2.33;2.08;;;35.00;32.00;;;;;;5108146;28;20204;-74
2022/07/29 10:39:49;;;;;;;3.50;2.10;;;35.60;31.00;;;;;;5092545;28;20191;-87
2022/07/29 10:42:20;;;;;;;2.47;2.17;;;34.70;28.00;;;;;;5098872;28;20265;-89
2022/07/29 10:44:47;;;;;;;4.47;2.13;;;34.80;28.10;;;;;;5106220;28;20260;-76
2022/07/29 10:47:23;;;;;;;2.40;2.20;;;34.90;27.80;;;;;;5111036;28;20229;-75
2022/07/29 10:49:57;;;;;;;2.40;2.20;;;34.50;28.10;;;;;;5114526;28;20194;-76
2022/07/29 10:52:27;;;;;;;3.50;1.98;;;35.00;27.40;;;;;;5099054;28;20199;-76
2022/07/29 10:54:55;;;;;;;2.83;2.00;;;36.10;27.40;;;;;;5090384;28;20195;-80
2022/07/29 10:57:26;;;;;;;2.53;2.33;;;36.10;26.00;;;;;;5086722;28;20200;-76
2022/07/29 11:00:28;;;;;;;2.50;2.30;;;37.00;26.20;;;;;;5096033;28;20199;-76
2022/07/29 11:02:57;;;;;;;2.58;2.38;;;36.60;25.20;;;;;;5095915;28;20232;-76
2022/07/29 11:05:29;;;;;;;3.67;3.38;;;36.50;25.40;;;;;;5112038;28;20653;-75
2022/07/29 11:08:25;;;;;;;2.67;2.47;;;36.50;25.10;;;;;;5095446;28;20655;-76
2022/07/29 11:10:54;;;;;;;3.30;2.25;;;35.20;24.60;;;;;;5081187;28;20207;-79
2022/07/29 11:13:46;;;;;;;2.30;2.10;;;34.50;24.70;;;;;;5105561;28;20215;-78
2022/07/29 11:16:13;;;;;;;3.08;2.15;;;34.40;25.30;;;;;;5099444;28;20207;-80
2022/07/29 11:19:14;;;;;;;2.40;2.20;;;34.00;24.70;;;;;;5103908;28;20261;-81
2022/07/29 11:21:43;;;;;;;2.20;2.00;;;34.20;24.30;;;;;;5088372;28;20221;-76
2022/07/29 11:24:14;;;;;;;2.40;2.20;;;33.90;24.20;;;;;;5105912;28;20196;-74
2022/07/29 11:26:42;;;;;;;2.50;1.83;;;33.50;25.00;;;;;;5108677;28;20269;-75
2022/07/29 11:29:19;;;;;;;3.28;2.50;;;33.10;25.00;;;;;;5104821;28;20598;-78
2022/07/29 11:31:51;;;;;;;2.50;2.30;;;32.60;26.10;;;;;;5101473;28;20206;-79
2022/07/29 11:34:25;;;;;;;2.10;1.92;;;33.00;25.80;;;;;;5096910;28;20257;-77
2022/07/29 11:37:29;;;;;;;2.60;2.40;;;34.40;25.20;;;;;;5106543;28;20198;-76
2022/07/29 11:40:19;;;;;;;2.80;2.60;;;34.60;24.30;;;;;;5087841;28;20317;-79
2022/07/29 11:42:50;;;;;;;2.25;2.10;;;33.80;25.10;;;;;;5097154;28;20227;-76
2022/07/29 11:45:23;;;;;;;2.50;2.30;;;34.10;25.00;;;;;;5107849;28;20199;-75
2022/07/29 11:47:57;;;;;;;3.53;2.65;;;33.20;25.80;;;;;;5096755;28;20192;-76
2022/07/29 11:50:33;;;;;;;2.88;2.50;;;32.70;27.10;;;;;;5092897;28;20726;-76
2022/07/29 11:53:01;;;;;;;2.65;2.45;;;32.70;27.10;;;;;;5108005;28;20654;-78
2022/07/29 11:55:31;;;;;;;2.90;2.70;;;33.50;27.50;;;;;;5113742;28;20654;-79
2022/07/29 11:58:00;;;;;;;2.88;2.55;;;34.80;25.80;;;;;;5100589;28;20203;-79
2022/07/29 12:00:30;;;;;;;3.85;2.80;;;33.50;26.30;;;;;;5092919;28;20204;-77
2022/07/29 12:02:57;;;;;;;3.38;2.67;;;33.00;27.20;;;;;;5092904;28;20223;-77
2022/07/29 12:05:33;;;;;;;5.07;2.50;;;33.10;27.70;;;;;;5093263;28;20246;-78
2022/07/29 12:08:09;;;;;;;2.83;2.63;;;32.20;28.50;;;;;;5102197;28;20192;-78
2022/07/29 12:10:38;;;;;;;4.50;2.80;;;31.70;29.10;;;;;;5105612;28;20252;-77
2022/07/29 12:13:05;;;;;;;3.75;3.08;;;31.10;30.40;;;;;;5102815;28;20196;-78
2022/07/29 12:15:32;;;;;;;3.85;2.80;;;31.60;30.60;;;;;;5104944;28;20200;-77
2022/07/29 12:17:59;;;;;;;5.75;3.00;;;32.00;30.90;;;;;;5101046;28;20200;-78
2022/07/29 12:20:27;;;;;;;4.80;2.95;;;31.80;30.60;;;;;;5093429;28;20204;-77
2022/07/29 12:22:55;;;;;;;2.63;2.42;;;31.50;31.10;;;;;;5093607;28;20269;-77
2022/07/29 12:25:23;;;;;;;3.35;3.05;;;31.70;32.30;;;;;;5091940;28;20203;-77
2022/07/29 12:28:00;;;;;;;3.17;2.50;;;32.00;31.40;;;;;;5093240;28;20204;-76
2022/07/29 12:30:38;;;;;;;2.67;2.47;;;31.60;31.70;;;;;;5101635;28;20290;-77
2022/07/29 12:33:12;;;;;;;3.45;2.80;;;30.80;31.80;;;;;;5107557;28;20196;-77
2022/07/29 12:35:39;;;;;;;3.92;2.90;;;31.00;32.30;;;;;;5104817;28;20196;-78
2022/07/29 12:38:06;;;;;;;3.20;2.90;;;31.40;30.50;;;;;;5095991;28;20864;-77
2022/07/29 12:40:33;;;;;;;3.33;2.80;;;32.50;30.50;;;;;;5109232;28;20254;-83
2022/07/29 12:43:10;;;;;;;3.67;3.08;;;34.60;28.10;;;;;;5113471;28;20223;-78
2022/07/29 12:45:37;;;;;;;3.55;2.97;;;35.10;26.70;;;;;;5092549;28;20286;-78
2022/07/29 12:48:05;;;;;;;2.70;2.50;;;35.30;26.00;;;;;;5091571;28;20249;-78
2022/07/29 12:50:32;;;;;;;4.78;2.60;;;35.00;26.10;;;;;;5091284;28;20677;-78
2022/07/29 12:53:10;;;;;;;5.60;2.53;;;34.10;27.20;;;;;;5105509;28;20201;-77
2022/07/29 12:55:44;;;;;;;3.03;2.72;;;32.90;28.20;;;;;;5090596;28;20219;-77
2022/07/29 12:58:12;;;;;;;3.08;2.72;;;32.00;29.10;;;;;;5093597;28;20195;-78
2022/07/29 13:00:39;;;;;;;3.88;2.80;;;31.40;30.00;;;;;;5112446;28;22250;-77
2022/07/29 13:03:06;;;;;;;6.28;2.83;;;30.90;29.80;;;;;;5106391;28;20687;-78
2022/07/29 13:05:43;;;;;;;3.03;2.65;;;31.00;30.10;;;;;;5093101;28;20200;-78